Time;durP1;ratioP1;P1;durP2;ratioP2;P2;SDS_P1;SDS_P2;PMS_P1;PMS_P2;Temp;Humidity;BMP_temperature;BMP_pressure;BME280_temperature;BME280_humidity;BME280_pressure;Samples;Min_cycle;Max_cycle;Signal;HPM_P1;HPM_P2
2023/12/17 00:01:11;;;;;;;8.20;4.65;;;;;;;;;;5032845;28;20048;-63
2023/12/17 00:03:39;;;;;;;10.48;5.00;;;;;;;;;;5042166;28;20136;-58
2023/12/17 00:06:09;;;;;;;10.50;4.55;;;;;;;;;;5037547;28;20053;-59
2023/12/17 00:08:38;;;;;;;7.47;4.47;;;;;;;;;;5038352;28;20046;-60
2023/12/17 00:11:07;;;;;;;4.72;3.92;;;;;;;;;;5040167;28;20045;-62
2023/12/17 00:13:35;;;;;;;8.38;4.45;;;;;;;;;;5036129;28;20655;-61
2023/12/17 00:16:04;;;;;;;10.25;5.13;;;;;;;;;;5035594;28;20050;-62
2023/12/17 00:18:33;;;;;;;8.32;4.28;;;;;;;;;;5036097;28;20056;-60
2023/12/17 00:21:03;;;;;;;9.00;4.40;;;;;;;;;;5037395;28;20045;-65
2023/12/17 00:23:33;;;;;;;7.20;4.10;;;;;;;;;;5033494;28;20045;-63
2023/12/17 00:26:01;;;;;;;5.50;3.78;;;;;;;;;;5040748;28;20056;-64
2023/12/17 00:28:29;;;;;;;5.82;3.83;;;;;;;;;;5035945;28;20453;-60
2023/12/17 00:30:58;;;;;;;5.78;3.58;;;;;;;;;;5035887;28;20076;-59
2023/12/17 00:33:26;;;;;;;8.90;3.47;;;;;;;;;;5037245;28;20056;-60
2023/12/17 00:35:55;;;;;;;6.97;3.85;;;;;;;;;;5032344;28;20069;-61
2023/12/17 00:38:24;;;;;;;7.97;4.18;;;;;;;;;;5036273;28;20107;-61
2023/12/17 00:40:54;;;;;;;5.93;3.72;;;;;;;;;;5036542;28;20049;-64
2023/12/17 00:43:22;;;;;;;4.55;3.53;;;;;;;;;;5035889;28;20061;-62
2023/12/17 00:45:50;;;;;;;6.97;3.90;;;;;;;;;;5037652;28;20102;-61
2023/12/17 00:48:19;;;;;;;4.88;3.33;;;;;;;;;;5033643;28;20073;-62
2023/12/17 00:50:47;;;;;;;5.18;3.28;;;;;;;;;;5038477;28;20045;-65
2023/12/17 00:53:16;;;;;;;8.05;3.53;;;;;;;;;;5035783;28;20490;-63
2023/12/17 00:55:44;;;;;;;5.90;3.60;;;;;;;;;;5031928;28;20138;-59
2023/12/17 00:58:14;;;;;;;10.57;4.25;;;;;;;;;;5037610;28;20563;-60
2023/12/17 01:00:42;;;;;;;4.68;3.47;;;;;;;;;;5035409;28;20060;-60
2023/12/17 01:03:22;;;;;;;4.30;2.90;;;;;;;;;;5037073;28;20140;-62
2023/12/17 01:05:51;;;;;;;6.03;4.00;;;;;;;;;;5035021;28;20421;-70
2023/12/17 01:08:19;;;;;;;4.45;2.83;;;;;;;;;;5037742;28;20048;-64
2023/12/17 01:10:48;;;;;;;5.22;3.00;;;;;;;;;;5037235;28;20454;-60
2023/12/17 01:13:17;;;;;;;4.63;2.80;;;;;;;;;;5035340;28;20107;-63
2023/12/17 01:15:46;;;;;;;6.25;3.67;;;;;;;;;;5036930;28;20046;-63
2023/12/17 01:18:15;;;;;;;6.65;3.80;;;;;;;;;;5033823;28;20053;-59
2023/12/17 01:20:43;;;;;;;4.45;3.22;;;;;;;;;;5034471;28;20094;-59
2023/12/17 01:23:12;;;;;;;4.20;3.00;;;;;;;;;;5033679;28;20439;-62
2023/12/17 01:25:41;;;;;;;4.28;2.70;;;;;;;;;;5035336;28;20453;-60
2023/12/17 01:28:09;;;;;;;6.47;3.03;;;;;;;;;;5037956;28;20073;-61
2023/12/17 01:30:40;;;;;;;3.97;2.72;;;;;;;;;;5034435;28;20119;-66
2023/12/17 01:33:09;;;;;;;5.88;3.08;;;;;;;;;;5034052;28;20560;-60
2023/12/17 01:35:37;;;;;;;4.03;2.53;;;;;;;;;;5038926;28;20049;-60
2023/12/17 01:38:06;;;;;;;5.32;3.00;;;;;;;;;;5034723;28;20268;-69
2023/12/17 01:40:34;;;;;;;4.32;3.15;;;;;;;;;;5035083;28;20077;-62
2023/12/17 01:43:04;;;;;;;4.78;2.70;;;;;;;;;;5036215;28;20107;-60
2023/12/17 01:45:32;;;;;;;3.10;2.35;;;;;;;;;;5036168;28;20050;-60
2023/12/17 01:48:02;;;;;;;5.18;2.70;;;;;;;;;;5032148;28;20072;-60
2023/12/17 01:50:31;;;;;;;3.50;2.33;;;;;;;;;;5035523;28;20467;-60
2023/12/17 01:53:00;;;;;;;5.90;2.67;;;;;;;;;;5035947;28;20049;-62
2023/12/17 01:55:28;;;;;;;4.07;2.65;;;;;;;;;;5037384;28;20045;-66
2023/12/17 01:57:58;;;;;;;3.72;2.30;;;;;;;;;;5036563;28;20103;-60
2023/12/17 02:00:26;;;;;;;4.47;2.33;;;;;;;;;;5037749;28;20520;-59
2023/12/17 02:02:55;;;;;;;5.05;2.58;;;;;;;;;;5038991;28;20068;-68
2023/12/17 02:05:25;;;;;;;4.28;2.83;;;;;;;;;;5042578;28;20485;-62
2023/12/17 02:07:53;;;;;;;4.57;2.72;;;;;;;;;;5038758;28;20049;-62
2023/12/17 02:10:22;;;;;;;3.28;2.53;;;;;;;;;;5037992;28;20041;-61
2023/12/17 02:12:50;;;;;;;3.42;2.58;;;;;;;;;;5037866;28;20053;-61
2023/12/17 02:15:19;;;;;;;3.95;2.30;;;;;;;;;;5041777;28;20049;-63
2023/12/17 02:17:47;;;;;;;5.68;2.65;;;;;;;;;;5038966;28;20064;-62
2023/12/17 02:20:16;;;;;;;3.55;2.50;;;;;;;;;;5039805;28;20081;-60
2023/12/17 02:22:49;;;;;;;4.18;2.78;;;;;;;;;;5041355;28;20045;-61
2023/12/17 02:25:19;;;;;;;5.55;3.00;;;;;;;;;;5039980;28;20053;-65
2023/12/17 02:27:47;;;;;;;4.75;3.08;;;;;;;;;;5035865;28;20057;-61
2023/12/17 02:30:16;;;;;;;4.05;2.95;;;;;;;;;;5034657;28;20044;-62
2023/12/17 02:32:44;;;;;;;3.97;2.78;;;;;;;;;;5040662;28;20126;-61
2023/12/17 02:35:13;;;;;;;4.13;2.80;;;;;;;;;;5041405;28;20064;-60
2023/12/17 02:37:41;;;;;;;4.20;2.88;;;;;;;;;;5036503;28;20138;-65
2023/12/17 02:40:10;;;;;;;3.85;2.55;;;;;;;;;;5042387;28;20049;-64
2023/12/17 02:42:40;;;;;;;3.05;2.30;;;;;;;;;;5037188;28;20123;-62
2023/12/17 02:45:09;;;;;;;2.92;2.47;;;;;;;;;;5033948;28;20045;-62
2023/12/17 02:47:38;;;;;;;3.42;2.28;;;;;;;;;;5027323;28;20384;-60
2023/12/17 02:50:07;;;;;;;5.05;2.60;;;;;;;;;;5038705;28;20091;-62
2023/12/17 02:52:35;;;;;;;3.60;2.78;;;;;;;;;;5034956;28;20565;-61
2023/12/17 02:55:04;;;;;;;3.28;2.28;;;;;;;;;;5041462;28;20052;-65
2023/12/17 02:57:32;;;;;;;5.60;2.67;;;;;;;;;;5035980;28;20057;-63
2023/12/17 03:00:03;;;;;;;4.53;2.67;;;;;;;;;;5037466;28;20052;-61
2023/12/17 03:02:31;;;;;;;7.10;2.63;;;;;;;;;;5034754;28;21255;-65
2023/12/17 03:05:00;;;;;;;5.15;2.30;;;;;;;;;;5035511;28;20412;-60
2023/12/17 03:07:29;;;;;;;4.07;2.38;;;;;;;;;;5038733;28;20521;-59
2023/12/17 03:09:58;;;;;;;2.95;2.63;;;;;;;;;;5035360;28;20449;-60
2023/12/17 03:12:26;;;;;;;3.97;2.50;;;;;;;;;;5033022;28;20087;-60
2023/12/17 03:14:55;;;;;;;3.55;2.13;;;;;;;;;;5036173;28;20052;-59
2023/12/17 03:17:24;;;;;;;3.78;2.50;;;;;;;;;;5037060;28;20049;-64
2023/12/17 03:19:53;;;;;;;5.22;2.58;;;;;;;;;;5039540;28;20111;-63
2023/12/17 03:22:21;;;;;;;5.18;2.63;;;;;;;;;;5037320;28;20040;-61
2023/12/17 03:24:50;;;;;;;5.00;2.80;;;;;;;;;;5036500;28;20045;-60
2023/12/17 03:27:18;;;;;;;3.20;2.17;;;;;;;;;;5038397;28;20045;-63
2023/12/17 03:29:47;;;;;;;3.03;2.10;;;;;;;;;;5041174;28;20132;-62
2023/12/17 03:32:15;;;;;;;4.57;2.63;;;;;;;;;;5036884;28;20103;-61
2023/12/17 03:34:45;;;;;;;2.75;2.30;;;;;;;;;;5038303;28;20053;-61
2023/12/17 03:37:14;;;;;;;5.22;2.67;;;;;;;;;;5032201;28;20053;-60
2023/12/17 03:39:42;;;;;;;4.85;2.53;;;;;;;;;;5039702;28;20132;-60
2023/12/17 03:42:10;;;;;;;4.15;2.58;;;;;;;;;;5035579;28;20502;-60
2023/12/17 03:44:39;;;;;;;3.05;2.47;;;;;;;;;;5037625;28;20328;-66
2023/12/17 03:47:07;;;;;;;3.63;2.40;;;;;;;;;;5034665;28;20108;-60
2023/12/17 03:49:35;;;;;;;2.88;2.25;;;;;;;;;;5034966;28;20130;-64
2023/12/17 03:52:06;;;;;;;3.20;2.22;;;;;;;;;;5037436;28;20045;-63
2023/12/17 03:54:34;;;;;;;7.25;2.08;;;;;;;;;;5032319;28;20045;-64
2023/12/17 03:57:03;;;;;;;4.78;2.20;;;;;;;;;;5042037;28;20086;-64
2023/12/17 03:59:31;;;;;;;3.65;2.17;;;;;;;;;;5037204;28;20080;-60
2023/12/17 04:02:02;;;;;;;3.03;2.30;;;;;;;;;;5038122;28;20045;-60
2023/12/17 04:04:31;;;;;;;3.88;2.30;;;;;;;;;;5037018;28;20458;-59
2023/12/17 04:06:59;;;;;;;2.45;1.65;;;;;;;;;;5036175;28;20045;-62
2023/12/17 04:09:29;;;;;;;2.67;1.98;;;;;;;;;;5038073;28;20053;-61
2023/12/17 04:11:58;;;;;;;2.42;2.00;;;;;;;;;;5036867;28;20495;-60
2023/12/17 04:14:26;;;;;;;2.80;2.22;;;;;;;;;;5036214;28;20044;-60
2023/12/17 04:16:55;;;;;;;4.10;2.00;;;;;;;;;;5039753;28;20482;-60
2023/12/17 04:19:23;;;;;;;2.30;1.80;;;;;;;;;;5039310;28;20049;-63
2023/12/17 04:21:52;;;;;;;5.47;1.98;;;;;;;;;;5038600;28;20502;-62
2023/12/17 04:24:20;;;;;;;2.25;1.98;;;;;;;;;;5035015;28;20079;-60
2023/12/17 04:26:50;;;;;;;2.92;2.45;;;;;;;;;;5037771;28;20095;-60
2023/12/17 04:29:18;;;;;;;3.97;2.60;;;;;;;;;;5036853;28;20041;-59
2023/12/17 04:31:46;;;;;;;2.90;1.80;;;;;;;;;;5037834;28;20134;-63
2023/12/17 04:34:15;;;;;;;2.22;1.95;;;;;;;;;;5037702;28;20045;-64
2023/12/17 04:36:44;;;;;;;3.33;2.25;;;;;;;;;;5040009;28;20052;-61
2023/12/17 04:39:12;;;;;;;3.20;2.13;;;;;;;;;;5038273;28;20565;-59
2023/12/17 04:41:42;;;;;;;3.28;2.30;;;;;;;;;;5035436;28;20060;-60
2023/12/17 04:44:12;;;;;;;2.80;1.67;;;;;;;;;;5034998;28;20053;-62
2023/12/17 04:46:40;;;;;;;2.53;1.88;;;;;;;;;;5029843;28;20068;-64
2023/12/17 04:49:08;;;;;;;2.25;1.67;;;;;;;;;;5035411;28;20111;-62
2023/12/17 04:51:37;;;;;;;2.53;1.80;;;;;;;;;;5038301;28;20041;-60
2023/12/17 04:54:05;;;;;;;2.80;2.00;;;;;;;;;;5031634;28;20428;-61
2023/12/17 04:56:34;;;;;;;2.15;1.60;;;;;;;;;;5033984;28;20563;-64
2023/12/17 04:59:02;;;;;;;2.83;1.85;;;;;;;;;;5040850;28;20761;-60
2023/12/17 05:01:32;;;;;;;2.35;1.80;;;;;;;;;;5037292;28;20049;-62
2023/12/17 05:04:00;;;;;;;3.17;1.85;;;;;;;;;;5036117;28;20107;-59
2023/12/17 05:06:29;;;;;;;3.55;2.05;;;;;;;;;;5035603;28;20526;-61
2023/12/17 05:08:57;;;;;;;2.67;1.58;;;;;;;;;;5036202;28;20482;-60
2023/12/17 05:11:26;;;;;;;2.95;2.08;;;;;;;;;;5037424;28;20053;-60
2023/12/17 05:13:54;;;;;;;2.50;1.90;;;;;;;;;;5035056;28;20152;-61
2023/12/17 05:16:22;;;;;;;2.95;1.75;;;;;;;;;;5036066;28;20504;-59
2023/12/17 05:18:52;;;;;;;3.15;2.10;;;;;;;;;;5038366;28;20049;-60
2023/12/17 05:21:20;;;;;;;4.03;1.75;;;;;;;;;;5034015;28;20103;-62
2023/12/17 05:23:49;;;;;;;3.75;1.70;;;;;;;;;;5036732;28;20494;-66
2023/12/17 05:26:17;;;;;;;1.95;1.75;;;;;;;;;;5037644;28;20217;-60
2023/12/17 05:28:46;;;;;;;2.17;1.40;;;;;;;;;;5040610;28;20150;-63
2023/12/17 05:31:14;;;;;;;2.70;1.73;;;;;;;;;;5039478;28;20048;-59
2023/12/17 05:33:46;;;;;;;3.45;1.67;;;;;;;;;;5039637;28;20053;-60
2023/12/17 05:36:16;;;;;;;2.20;1.50;;;;;;;;;;5038012;28;20037;-60
2023/12/17 05:38:45;;;;;;;2.72;1.77;;;;;;;;;;5037129;28;20444;-63
2023/12/17 05:41:14;;;;;;;1.52;1.23;;;;;;;;;;5038729;28;20111;-60
2023/12/17 05:43:42;;;;;;;2.85;2.08;;;;;;;;;;5041078;28;20422;-60
2023/12/17 05:46:10;;;;;;;3.25;1.52;;;;;;;;;;5036993;28;20041;-63
2023/12/17 05:48:39;;;;;;;2.20;1.50;;;;;;;;;;5034707;28;20244;-61
2023/12/17 05:51:08;;;;;;;2.53;1.63;;;;;;;;;;5040780;28;20052;-61
2023/12/17 05:53:38;;;;;;;1.52;1.20;;;;;;;;;;5037643;28;20045;-62
2023/12/17 05:56:14;;;;;;;1.45;1.30;;;;;;;;;;5037356;28;20080;-60
2023/12/17 05:58:43;;;;;;;1.40;1.30;;;;;;;;;;5040351;28;20077;-61
2023/12/17 06:01:12;;;;;;;2.40;1.33;;;;;;;;;;5037072;28;20081;-62
2023/12/17 06:03:41;;;;;;;3.47;1.95;;;;;;;;;;5038836;28;20057;-60
2023/12/17 06:06:09;;;;;;;1.30;1.20;;;;;;;;;;5041706;28;20499;-60
2023/12/17 06:08:39;;;;;;;1.60;1.48;;;;;;;;;;5037470;28;20060;-60
2023/12/17 06:11:08;;;;;;;1.55;1.33;;;;;;;;;;5040265;28;20045;-64
2023/12/17 06:13:36;;;;;;;2.15;1.77;;;;;;;;;;5038188;28;20056;-63
2023/12/17 06:16:05;;;;;;;2.60;1.30;;;;;;;;;;5039639;28;20095;-64
2023/12/17 06:18:33;;;;;;;2.47;2.03;;;;;;;;;;5038762;28;20045;-65
2023/12/17 06:21:02;;;;;;;3.58;1.67;;;;;;;;;;5043203;28;20106;-62
2023/12/17 06:23:31;;;;;;;1.50;1.40;;;;;;;;;;5038323;28;20485;-63
2023/12/17 06:26:04;;;;;;;1.75;1.38;;;;;;;;;;5037548;28;20494;-64
2023/12/17 06:28:33;;;;;;;1.45;1.35;;;;;;;;;;5035888;28;20061;-60
2023/12/17 06:31:01;;;;;;;2.22;1.70;;;;;;;;;;5039400;28;20048;-59
2023/12/17 06:33:30;;;;;;;2.35;1.55;;;;;;;;;;5036722;28;20045;-60
2023/12/17 06:35:59;;;;;;;2.10;1.65;;;;;;;;;;5035922;28;20504;-63
2023/12/17 06:38:27;;;;;;;2.15;1.42;;;;;;;;;;5036751;28;20053;-64
2023/12/17 06:40:55;;;;;;;1.92;1.30;;;;;;;;;;5038461;28;20049;-64
2023/12/17 06:43:25;;;;;;;1.52;1.30;;;;;;;;;;5040113;28;20045;-62
2023/12/17 06:45:54;;;;;;;1.95;1.33;;;;;;;;;;5038221;28;20133;-63
2023/12/17 06:48:22;;;;;;;1.30;1.20;;;;;;;;;;5028586;28;20111;-61
2023/12/17 06:50:51;;;;;;;1.48;1.33;;;;;;;;;;5038691;28;20502;-63
2023/12/17 06:53:19;;;;;;;1.63;1.17;;;;;;;;;;5036075;28;20045;-61
2023/12/17 06:55:48;;;;;;;1.92;1.73;;;;;;;;;;5038492;28;20103;-60
2023/12/17 06:58:16;;;;;;;2.08;1.50;;;;;;;;;;5035275;28;20052;-65
2023/12/17 07:00:46;;;;;;;1.80;1.13;;;;;;;;;;5034985;28;20049;-63
2023/12/17 07:03:18;;;;;;;1.65;1.35;;;;;;;;;;5038863;28;20052;-66
2023/12/17 07:05:47;;;;;;;2.53;1.20;;;;;;;;;;5035432;28;20589;-62
2023/12/17 07:08:16;;;;;;;2.13;1.58;;;;;;;;;;5033269;28;20077;-59
2023/12/17 07:10:44;;;;;;;2.25;1.70;;;;;;;;;;5040281;28;20049;-59
2023/12/17 07:13:12;;;;;;;3.15;1.95;;;;;;;;;;5036060;28;20567;-64
2023/12/17 07:15:41;;;;;;;2.15;1.60;;;;;;;;;;5035836;28;20495;-61
2023/12/17 07:18:10;;;;;;;4.20;1.60;;;;;;;;;;5037630;28;20085;-62
2023/12/17 07:20:39;;;;;;;1.80;1.50;;;;;;;;;;5037826;28;20049;-65
2023/12/17 07:23:08;;;;;;;1.35;1.20;;;;;;;;;;5031530;28;20413;-64
2023/12/17 07:25:36;;;;;;;2.25;1.77;;;;;;;;;;5034252;28;20128;-59
2023/12/17 07:28:04;;;;;;;2.47;1.83;;;;;;;;;;5032674;28;20501;-60
2023/12/17 07:30:34;;;;;;;1.90;1.50;;;;;;;;;;5038651;28;20045;-61
2023/12/17 07:33:04;;;;;;;2.17;1.40;;;;;;;;;;5034793;28;20108;-63
2023/12/17 07:35:34;;;;;;;2.00;1.45;;;;;;;;;;5035766;28;20482;-63
2023/12/17 07:38:02;;;;;;;1.40;1.30;;;;;;;;;;5036238;28;20045;-64
2023/12/17 07:40:31;;;;;;;1.98;1.55;;;;;;;;;;5031132;28;20052;-63
2023/12/17 07:42:59;;;;;;;4.85;1.50;;;;;;;;;;5031467;28;20111;-67
2023/12/17 07:45:28;;;;;;;2.70;1.52;;;;;;;;;;5033784;28;20083;-61
2023/12/17 07:47:56;;;;;;;1.95;1.60;;;;;;;;;;5036472;28;20500;-62
2023/12/17 07:50:25;;;;;;;1.67;1.58;;;;;;;;;;5032450;28;20513;-61
2023/12/17 07:52:55;;;;;;;3.33;1.50;;;;;;;;;;5031300;28;20057;-63
2023/12/17 07:55:23;;;;;;;1.70;1.35;;;;;;;;;;5032811;28;20579;-62
2023/12/17 07:57:52;;;;;;;2.60;1.50;;;;;;;;;;5034365;28;20426;-64
2023/12/17 08:00:21;;;;;;;1.65;1.52;;;;;;;;;;5040979;28;20049;-61
2023/12/17 08:02:49;;;;;;;1.35;1.00;;;;;;;;;;5035224;28;20059;-62
2023/12/17 08:05:17;;;;;;;1.83;1.60;;;;;;;;;;5035539;28;20064;-64
2023/12/17 08:07:46;;;;;;;2.05;1.60;;;;;;;;;;5033195;28;20540;-64
2023/12/17 08:10:15;;;;;;;1.80;1.40;;;;;;;;;;5039190;28;20057;-61
2023/12/17 08:12:44;;;;;;;2.17;1.42;;;;;;;;;;5033614;28;20422;-60
2023/12/17 08:15:12;;;;;;;2.40;1.42;;;;;;;;;;5033593;28;20049;-66
2023/12/17 08:17:41;;;;;;;2.28;1.70;;;;;;;;;;5036871;28;20482;-63
2023/12/17 08:20:11;;;;;;;2.08;1.50;;;;;;;;;;5031927;28;20125;-62
2023/12/17 08:22:39;;;;;;;2.88;1.65;;;;;;;;;;5033475;28;20065;-62
2023/12/17 08:25:07;;;;;;;1.52;1.35;;;;;;;;;;5036127;28;20107;-62
2023/12/17 08:27:37;;;;;;;2.35;1.52;;;;;;;;;;5035844;28;20053;-62
2023/12/17 08:30:07;;;;;;;1.20;1.10;;;;;;;;;;5035089;28;20400;-60
2023/12/17 08:32:35;;;;;;;1.88;1.58;;;;;;;;;;5039030;28;20214;-65
2023/12/17 08:35:04;;;;;;;1.67;1.58;;;;;;;;;;5035416;28;20049;-60
2023/12/17 08:37:32;;;;;;;2.05;1.58;;;;;;;;;;5037100;28;20052;-60
2023/12/17 08:40:03;;;;;;;1.63;1.30;;;;;;;;;;5033947;28;20041;-63
2023/12/17 08:42:31;;;;;;;2.13;1.42;;;;;;;;;;5037626;28;20053;-61
2023/12/17 08:45:01;;;;;;;2.00;1.60;;;;;;;;;;5033066;28;20050;-66
2023/12/17 08:47:29;;;;;;;5.78;1.40;;;;;;;;;;5028762;28;20061;-65
2023/12/17 08:49:59;;;;;;;2.17;1.50;;;;;;;;;;5034587;28;20049;-60
2023/12/17 08:52:29;;;;;;;2.72;1.70;;;;;;;;;;5038152;28;20099;-65
2023/12/17 08:54:57;;;;;;;1.55;1.33;;;;;;;;;;5034615;28;20103;-62
2023/12/17 08:57:25;;;;;;;1.67;1.48;;;;;;;;;;5036558;28;20150;-64
2023/12/17 08:59:54;;;;;;;2.00;1.20;;;;;;;;;;5036899;28;20045;-64
2023/12/17 09:02:24;;;;;;;2.00;1.30;;;;;;;;;;5039685;28;20057;-61
2023/12/17 09:04:53;;;;;;;5.65;1.77;;;;;;;;;;5039038;28;20469;-61
2023/12/17 09:07:22;;;;;;;1.58;1.42;;;;;;;;;;5040398;28;20463;-62
2023/12/17 09:09:50;;;;;;;3.53;1.45;;;;;;;;;;5038087;28;20041;-65
2023/12/17 09:12:19;;;;;;;2.35;1.40;;;;;;;;;;5040417;28;20056;-65
2023/12/17 09:14:47;;;;;;;2.10;1.38;;;;;;;;;;5039082;28;20137;-62
2023/12/17 09:17:16;;;;;;;5.18;1.30;;;;;;;;;;5039158;28;20085;-65
2023/12/17 09:19:46;;;;;;;3.10;1.88;;;;;;;;;;5040078;28;20089;-61
2023/12/17 09:22:14;;;;;;;3.15;1.75;;;;;;;;;;5043277;28;20051;-65
2023/12/17 09:24:42;;;;;;;2.60;1.60;;;;;;;;;;5038495;28;20501;-62
2023/12/17 09:27:13;;;;;;;2.22;1.55;;;;;;;;;;5038584;28;20053;-61
2023/12/17 09:29:42;;;;;;;1.48;1.30;;;;;;;;;;5035232;28;20049;-66
2023/12/17 09:32:10;;;;;;;1.65;1.30;;;;;;;;;;5036871;28;20045;-66
2023/12/17 09:34:38;;;;;;;3.40;1.92;;;;;;;;;;5042610;28;20135;-61
2023/12/17 09:37:08;;;;;;;1.83;1.73;;;;;;;;;;5037231;28;20079;-62
2023/12/17 09:39:37;;;;;;;2.00;1.52;;;;;;;;;;5035145;28;20057;-61
2023/12/17 09:42:06;;;;;;;2.65;1.60;;;;;;;;;;5038168;28;20419;-61
2023/12/17 09:44:35;;;;;;;2.60;1.75;;;;;;;;;;5039754;28;20060;-61
2023/12/17 09:47:03;;;;;;;2.83;1.65;;;;;;;;;;5038956;28;20497;-59
2023/12/17 09:49:31;;;;;;;3.00;2.05;;;;;;;;;;5031062;28;20053;-61
2023/12/17 09:52:02;;;;;;;2.55;1.90;;;;;;;;;;5034625;28;20056;-60
2023/12/17 09:54:31;;;;;;;2.60;1.80;;;;;;;;;;5031328;28;20450;-62
2023/12/17 09:57:00;;;;;;;3.00;2.05;;;;;;;;;;5034242;28;20076;-61
2023/12/17 09:59:29;;;;;;;3.85;1.80;;;;;;;;;;5034908;28;20414;-64
2023/12/17 10:01:57;;;;;;;2.55;1.83;;;;;;;;;;5042758;28;20072;-62
2023/12/17 10:04:26;;;;;;;2.88;2.08;;;;;;;;;;5037056;28;20057;-60
2023/12/17 10:06:55;;;;;;;2.75;1.92;;;;;;;;;;5038107;28;20079;-59
2023/12/17 10:09:23;;;;;;;3.38;1.95;;;;;;;;;;5039112;28;20048;-64
2023/12/17 10:11:53;;;;;;;2.00;1.80;;;;;;;;;;5040600;28;20132;-63
2023/12/17 10:14:22;;;;;;;9.30;2.15;;;;;;;;;;5043561;28;20561;-62
2023/12/17 10:16:51;;;;;;;3.33;2.25;;;;;;;;;;5043915;28;20045;-62
2023/12/17 10:19:19;;;;;;;2.70;1.85;;;;;;;;;;5039836;28;20103;-59
2023/12/17 10:21:49;;;;;;;2.13;1.77;;;;;;;;;;5038156;28;20041;-62
2023/12/17 10:24:18;;;;;;;2.10;1.73;;;;;;;;;;5039876;28;20067;-60
2023/12/17 10:26:47;;;;;;;2.30;1.70;;;;;;;;;;5035849;28;20049;-60
2023/12/17 10:29:18;;;;;;;1.85;1.65;;;;;;;;;;5042942;28;20046;-62
2023/12/17 10:31:46;;;;;;;2.08;1.83;;;;;;;;;;5035291;28;20164;-61
2023/12/17 10:34:18;;;;;;;3.45;1.80;;;;;;;;;;5039685;28;20057;-62
2023/12/17 10:36:48;;;;;;;2.10;1.90;;;;;;;;;;5039592;28;20049;-61
2023/12/17 10:39:17;;;;;;;2.70;1.98;;;;;;;;;;5040479;28;20083;-65
2023/12/17 10:41:48;;;;;;;2.53;1.80;;;;;;;;;;5037157;28;20136;-60
2023/12/17 10:44:21;;;;;;;3.28;1.90;;;;;;;;;;5038217;28;20144;-61
2023/12/17 10:46:50;;;;;;;3.78;1.73;;;;;;;;;;5032855;28;20253;-64
2023/12/17 10:49:19;;;;;;;2.97;1.60;;;;;;;;;;5038687;28;20073;-65
2023/12/17 10:51:49;;;;;;;2.17;1.70;;;;;;;;;;5032309;28;20045;-59
2023/12/17 10:54:17;;;;;;;2.28;1.63;;;;;;;;;;5037878;28;20082;-62
2023/12/17 10:56:48;;;;;;;1.83;1.48;;;;;;;;;;5039240;28;20495;-63
2023/12/17 10:59:20;;;;;;;1.90;1.60;;;;;;;;;;5032788;28;20609;-60
2023/12/17 11:02:02;;;;;;;;;;;;;;;;;;5038674;28;20554;-64
2023/12/17 11:04:30;;;;;;;1.98;1.60;;;;;;;;;;5039996;28;19925;-63
2023/12/17 11:06:59;;;;;;;1.85;1.40;;;;;;;;;;5038869;28;20686;-60
2023/12/17 11:09:27;;;;;;;2.78;1.65;;;;;;;;;;5039109;28;20473;-64
2023/12/17 11:11:56;;;;;;;2.75;1.85;;;;;;;;;;5035627;28;20059;-63
2023/12/17 11:14:25;;;;;;;1.90;1.50;;;;;;;;;;5039262;28;20057;-61
2023/12/17 11:16:54;;;;;;;2.60;1.50;;;;;;;;;;5036962;28;20087;-62
2023/12/17 11:19:22;;;;;;;2.85;1.40;;;;;;;;;;5036976;28;20161;-60
2023/12/17 11:21:51;;;;;;;2.10;1.35;;;;;;;;;;5039318;28;20128;-72
2023/12/17 11:24:19;;;;;;;2.55;1.60;;;;;;;;;;5034634;28;20142;-60
2023/12/17 11:26:49;;;;;;;2.42;1.20;;;;;;;;;;5033816;28;20140;-62
2023/12/17 11:29:38;;;;;;;1.45;1.10;;;;;;;;;;5036926;28;20445;-62
2023/12/17 11:32:07;;;;;;;2.38;1.40;;;;;;;;;;5037613;28;20041;-61
2023/12/17 11:34:35;;;;;;;1.63;1.30;;;;;;;;;;5036314;28;20073;-68
2023/12/17 11:37:04;;;;;;;2.03;1.20;;;;;;;;;;5037556;28;20048;-64
2023/12/17 11:39:32;;;;;;;1.48;1.13;;;;;;;;;;5037076;28;20049;-60
2023/12/17 11:42:01;;;;;;;1.20;1.10;;;;;;;;;;5038566;28;20498;-62
2023/12/17 11:44:29;;;;;;;2.10;1.23;;;;;;;;;;5035799;28;20172;-66
2023/12/17 11:46:59;;;;;;;1.83;1.35;;;;;;;;;;5035179;28;20486;-62
2023/12/17 11:49:28;;;;;;;1.58;1.38;;;;;;;;;;5039453;28;20057;-61
2023/12/17 11:51:56;;;;;;;2.00;1.27;;;;;;;;;;5035136;28;20068;-63
2023/12/17 11:54:25;;;;;;;2.85;1.35;;;;;;;;;;5037186;28;20049;-60
2023/12/17 11:56:53;;;;;;;1.88;1.30;;;;;;;;;;5040373;28;20053;-62
2023/12/17 11:59:32;;;;;;;2.67;1.52;;;;;;;;;;5040757;28;20050;-60
2023/12/17 12:02:03;;;;;;;3.03;1.30;;;;;;;;;;5039597;28;20045;-61
2023/12/17 12:04:39;;;;;;;1.48;1.30;;;;;;;;;;5040894;28;20510;-61
2023/12/17 12:07:07;;;;;;;2.72;1.50;;;;;;;;;;5037773;28;20059;-60
2023/12/17 12:09:36;;;;;;;1.95;1.48;;;;;;;;;;5036754;28;20119;-61
2023/12/17 12:12:15;;;;;;;2.10;1.70;;;;;;;;;;5035492;28;20426;-62
2023/12/17 12:14:45;;;;;;;3.20;1.63;;;;;;;;;;5037114;28;20506;-62
2023/12/17 12:17:32;;;;;;;1.67;1.42;;;;;;;;;;5030231;28;20151;-60
2023/12/17 12:20:02;;;;;;;2.42;1.50;;;;;;;;;;5035843;28;20045;-60
2023/12/17 12:22:31;;;;;;;1.75;1.40;;;;;;;;;;5032502;28;20045;-61
2023/12/17 12:24:59;;;;;;;2.42;1.52;;;;;;;;;;5029607;28;20073;-59
2023/12/17 12:27:28;;;;;;;2.40;1.60;;;;;;;;;;5036933;28;20053;-60
2023/12/17 12:29:57;;;;;;;2.40;1.75;;;;;;;;;;5040791;28;20073;-60
2023/12/17 12:32:29;;;;;;;2.30;1.55;;;;;;;;;;5035625;28;20144;-60
2023/12/17 12:34:58;;;;;;;2.03;1.35;;;;;;;;;;5035230;28;20053;-61
2023/12/17 12:37:34;;;;;;;2.40;1.60;;;;;;;;;;5034682;28;20049;-61
2023/12/17 12:40:04;;;;;;;2.20;1.60;;;;;;;;;;5035802;28;20045;-60
2023/12/17 12:42:37;;;;;;;2.58;2.03;;;;;;;;;;5036632;28;20068;-62
2023/12/17 12:45:10;;;;;;;3.25;1.85;;;;;;;;;;5037348;28;20736;-60
2023/12/17 12:47:39;;;;;;;1.85;1.50;;;;;;;;;;5036325;28;20046;-60
2023/12/17 12:50:09;;;;;;;2.60;1.67;;;;;;;;;;5035708;28;20045;-66
2023/12/17 12:52:39;;;;;;;2.20;1.60;;;;;;;;;;5039421;28;20445;-60
2023/12/17 12:55:07;;;;;;;2.20;1.63;;;;;;;;;;5036628;28;20111;-63
2023/12/17 12:57:36;;;;;;;3.47;1.60;;;;;;;;;;5037161;28;20061;-61
2023/12/17 13:00:05;;;;;;;1.98;1.65;;;;;;;;;;5039048;28;20049;-68
2023/12/17 13:02:34;;;;;;;2.47;1.83;;;;;;;;;;5032103;28;20139;-64
2023/12/17 13:05:03;;;;;;;4.65;2.08;;;;;;;;;;5033395;28;20048;-68
2023/12/17 13:07:31;;;;;;;3.20;1.52;;;;;;;;;;5031015;28;20691;-70
2023/12/17 13:10:01;;;;;;;2.42;1.77;;;;;;;;;;5037785;28;20045;-69
2023/12/17 13:12:38;;;;;;;4.00;1.98;;;;;;;;;;5038102;28;20049;-62
2023/12/17 13:15:07;;;;;;;1.77;1.45;;;;;;;;;;5038438;28;20150;-64
2023/12/17 13:17:35;;;;;;;2.78;1.85;;;;;;;;;;5039987;28;20603;-62
2023/12/17 13:20:04;;;;;;;2.63;1.85;;;;;;;;;;5038999;28;20106;-61
2023/12/17 13:22:33;;;;;;;2.13;1.58;;;;;;;;;;5038835;28;20050;-66
2023/12/17 13:25:02;;;;;;;3.20;1.83;;;;;;;;;;5037904;28;20045;-62
2023/12/17 13:27:31;;;;;;;2.80;2.20;;;;;;;;;;5033771;28;20065;-66
2023/12/17 13:29:59;;;;;;;2.78;1.70;;;;;;;;;;5038213;28;20552;-67
2023/12/17 13:32:28;;;;;;;2.42;1.85;;;;;;;;;;5036039;28;20088;-67
2023/12/17 13:34:57;;;;;;;2.85;2.30;;;;;;;;;;5036636;28;20056;-63
2023/12/17 13:37:26;;;;;;;2.28;1.40;;;;;;;;;;5034906;28;20458;-64
2023/12/17 13:39:54;;;;;;;2.17;1.67;;;;;;;;;;5036062;28;20041;-62
2023/12/17 13:42:25;;;;;;;3.47;1.50;;;;;;;;;;5035293;28;20128;-65
2023/12/17 13:44:54;;;;;;;2.40;1.65;;;;;;;;;;5041226;28;20471;-69
2023/12/17 13:47:22;;;;;;;5.65;1.67;;;;;;;;;;5036158;28;20056;-60
2023/12/17 13:49:50;;;;;;;2.33;1.52;;;;;;;;;;5045049;28;20041;-59
2023/12/17 13:52:19;;;;;;;2.00;1.55;;;;;;;;;;5037041;28;20045;-60
2023/12/17 13:54:47;;;;;;;2.33;1.63;;;;;;;;;;5040195;28;20041;-60
2023/12/17 13:57:18;;;;;;;4.90;1.60;;;;;;;;;;5039581;28;20445;-63
2023/12/17 13:59:48;;;;;;;2.80;1.70;;;;;;;;;;5039893;28;20041;-61
2023/12/17 14:02:16;;;;;;;2.40;1.90;;;;;;;;;;5038067;28;20049;-59
2023/12/17 14:04:45;;;;;;;2.25;1.70;;;;;;;;;;5039237;28;20048;-63
2023/12/17 14:07:13;;;;;;;2.55;1.50;;;;;;;;;;5041530;28;20049;-65
2023/12/17 14:09:41;;;;;;;2.40;1.83;;;;;;;;;;5041524;28;20045;-68
2023/12/17 14:12:12;;;;;;;2.25;1.45;;;;;;;;;;5037561;28;20049;-60
2023/12/17 14:14:42;;;;;;;2.47;1.30;;;;;;;;;;5039741;28;20654;-62
2023/12/17 14:17:11;;;;;;;2.28;1.60;;;;;;;;;;5037031;28;20131;-66
2023/12/17 14:19:40;;;;;;;2.28;1.80;;;;;;;;;;5037776;28;20076;-60
2023/12/17 14:22:08;;;;;;;2.50;1.50;;;;;;;;;;5038634;28;20053;-65
2023/12/17 14:24:36;;;;;;;3.10;1.50;;;;;;;;;;5038033;28;20045;-60
2023/12/17 14:27:05;;;;;;;3.30;1.38;;;;;;;;;;5028157;28;20073;-66
2023/12/17 14:29:34;;;;;;;4.90;1.50;;;;;;;;;;5036997;28;20057;-62
2023/12/17 14:32:03;;;;;;;2.03;1.52;;;;;;;;;;5040672;28;20041;-60
2023/12/17 14:34:35;;;;;;;2.03;1.35;;;;;;;;;;5038319;28;20049;-60
2023/12/17 14:37:04;;;;;;;2.08;1.52;;;;;;;;;;5039627;28;20138;-60
2023/12/17 14:39:33;;;;;;;3.85;1.58;;;;;;;;;;5039638;28;20045;-60
2023/12/17 14:42:02;;;;;;;2.30;1.60;;;;;;;;;;5037382;28;20122;-61
2023/12/17 14:44:30;;;;;;;2.10;1.33;;;;;;;;;;5039173;28;20052;-60
2023/12/17 14:47:00;;;;;;;2.20;1.45;;;;;;;;;;5038118;28;20057;-60
2023/12/17 14:49:28;;;;;;;1.58;1.48;;;;;;;;;;5039811;28;20501;-64
2023/12/17 14:51:58;;;;;;;1.98;1.63;;;;;;;;;;5036197;28;20049;-62
2023/12/17 14:54:26;;;;;;;5.13;1.40;;;;;;;;;;5036948;28;20133;-62